createdAt,value
2018-03-11T00:01:30.115Z,9.07
2018-03-11T00:04:03.746Z,9.20
2018-03-11T00:06:37.290Z,9.40
2018-03-11T00:09:10.868Z,9.37
2018-03-11T00:11:44.692Z,9.60
2018-03-11T00:14:18.355Z,9.27
2018-03-11T00:16:55.885Z,9.80
2018-03-11T00:19:29.400Z,9.50
2018-03-11T00:22:02.986Z,9.37
2018-03-11T00:24:36.837Z,10.30
2018-03-11T00:27:10.572Z,9.20
2018-03-11T00:29:44.169Z,9.97
2018-03-11T00:32:17.821Z,10.57
2018-03-11T00:34:52.115Z,9.93
2018-03-11T00:37:25.705Z,11.33
2018-03-11T00:39:59.349Z,10.00
2018-03-11T00:42:33.018Z,11.97
2018-03-11T00:45:06.785Z,10.37
2018-03-11T00:47:40.341Z,11.13
2018-03-11T00:50:13.889Z,11.23
2018-03-11T00:52:47.452Z,12.13
2018-03-11T00:55:21.213Z,12.13
2018-03-11T00:57:54.963Z,10.93
2018-03-11T01:00:28.486Z,12.13
2018-03-11T01:03:02.087Z,11.73
2018-03-11T01:05:35.805Z,12.23
2018-03-11T01:08:09.310Z,12.13
2018-03-11T01:10:42.990Z,11.43
2018-03-11T01:13:16.533Z,11.77
2018-03-11T01:15:50.093Z,12.07
2018-03-11T01:18:23.685Z,11.67
2018-03-11T01:20:57.253Z,11.80
2018-03-11T01:23:30.798Z,11.47
2018-03-11T01:26:04.381Z,11.97
2018-03-11T01:28:37.898Z,11.80
2018-03-11T01:31:11.414Z,12.50
2018-03-11T01:33:44.933Z,11.43
2018-03-11T01:36:18.485Z,12.00
2018-03-11T01:38:52.175Z,13.10
2018-03-11T01:41:25.969Z,12.40
2018-03-11T01:43:59.658Z,13.30
2018-03-11T01:46:33.325Z,13.43
2018-03-11T01:49:06.822Z,13.37
2018-03-11T01:51:40.360Z,11.77
2018-03-11T01:54:14.030Z,12.70
2018-03-11T01:56:47.614Z,13.40
2018-03-11T01:59:21.190Z,13.40
2018-03-11T02:01:54.817Z,13.40
2018-03-11T02:04:28.495Z,12.07
2018-03-11T02:07:02.021Z,13.77
2018-03-11T02:09:35.605Z,13.50
2018-03-11T02:12:09.232Z,12.27
2018-03-11T02:14:42.758Z,13.73
2018-03-11T02:17:16.529Z,14.60
2018-03-11T02:19:50.085Z,13.93
2018-03-11T02:22:23.737Z,13.87
2018-03-11T02:24:57.315Z,13.93
2018-03-11T02:27:30.969Z,14.93
2018-03-11T02:30:04.668Z,14.80
2018-03-11T02:32:38.147Z,16.00
2018-03-11T02:35:11.834Z,15.13
2018-03-11T02:37:45.381Z,15.43
2018-03-11T02:40:19.048Z,16.77
2018-03-11T02:42:52.663Z,16.13
2018-03-11T02:45:26.275Z,16.90
2018-03-11T02:47:59.863Z,15.40
2018-03-11T02:50:33.438Z,16.13
2018-03-11T02:53:06.970Z,15.97
2018-03-11T02:55:40.521Z,16.33
2018-03-11T02:58:14.152Z,17.00
2018-03-11T03:00:47.686Z,17.17
2018-03-11T03:03:21.430Z,16.60
2018-03-11T03:05:54.979Z,15.97
2018-03-11T03:08:28.687Z,16.57
2018-03-11T03:11:02.236Z,16.77
2018-03-11T03:13:35.835Z,18.10
2018-03-11T03:16:09.542Z,18.57
2018-03-11T03:18:43.171Z,17.67
2018-03-11T03:21:16.740Z,18.73
2018-03-11T03:23:50.243Z,18.10
2018-03-11T03:26:23.845Z,17.17
2018-03-11T03:28:57.485Z,18.10
2018-03-11T03:31:31.114Z,18.33
2018-03-11T03:34:04.744Z,17.67
2018-03-11T03:36:38.316Z,18.47
2018-03-11T03:39:11.999Z,18.73
2018-03-11T03:41:45.595Z,18.80
2018-03-11T03:44:19.222Z,18.33
2018-03-11T03:46:52.794Z,19.10
2018-03-11T03:49:26.422Z,17.40
2018-03-11T03:52:00.026Z,18.47
2018-03-11T03:54:33.613Z,18.90
2018-03-11T03:57:07.316Z,18.97
2018-03-11T03:59:40.916Z,18.73
2018-03-11T04:02:14.545Z,18.70
2018-03-11T04:04:48.185Z,19.13
2018-03-11T04:07:21.847Z,19.27
2018-03-11T04:09:55.370Z,18.50
2018-03-11T04:12:28.952Z,18.63
2018-03-11T04:15:02.657Z,17.67
2018-03-11T04:17:36.233Z,18.43
2018-03-11T04:20:09.758Z,18.83
2018-03-11T04:22:43.434Z,18.23
2018-03-11T04:25:16.966Z,18.90
2018-03-11T04:27:50.762Z,18.30
2018-03-11T04:30:24.402Z,18.20
2018-03-11T04:32:58.073Z,18.20
2018-03-11T04:35:31.735Z,19.10
2018-03-11T04:38:05.426Z,17.50
2018-03-11T04:40:39.077Z,19.30
2018-03-11T04:43:12.658Z,19.63
2018-03-11T04:45:46.206Z,18.00
2018-03-11T04:48:20.775Z,18.73
2018-03-11T04:50:54.866Z,18.23
2018-03-11T04:53:28.861Z,17.20
2018-03-11T04:56:02.675Z,18.63
2018-03-11T04:58:36.303Z,18.73
2018-03-11T05:01:09.949Z,17.77
2018-03-11T05:03:43.611Z,18.07
2018-03-11T05:06:17.206Z,17.50
2018-03-11T05:08:50.857Z,16.40
2018-03-11T05:11:24.590Z,16.83
2018-03-11T05:13:58.249Z,16.00
2018-03-11T05:16:31.761Z,16.20
2018-03-11T05:19:05.405Z,17.40
2018-03-11T05:21:39.065Z,16.73
2018-03-11T05:24:12.823Z,15.60
2018-03-11T05:26:46.502Z,17.07
2018-03-11T05:29:20.084Z,15.60
2018-03-11T05:31:53.670Z,15.40
2018-03-11T05:34:27.352Z,16.33
2018-03-11T05:40:09.538Z,16.03
2018-03-11T05:42:43.073Z,14.70
2018-03-11T05:45:16.604Z,13.83
2018-03-11T05:47:50.170Z,15.17
2018-03-11T05:50:23.697Z,15.00
2018-03-11T05:52:57.382Z,14.00
2018-03-11T05:55:30.898Z,14.77
2018-03-11T05:58:04.558Z,13.70
2018-03-11T06:00:38.225Z,12.27
2018-03-11T06:03:12.161Z,13.87
2018-03-11T06:05:45.738Z,13.73
2018-03-11T06:08:19.450Z,14.00
2018-03-11T06:10:53.098Z,13.13
2018-03-11T06:13:26.722Z,13.63
2018-03-11T06:16:00.320Z,13.17
2018-03-11T06:18:33.879Z,12.87
2018-03-11T06:21:07.429Z,13.00
2018-03-11T06:23:41.010Z,13.03
2018-03-11T06:26:14.783Z,11.47
2018-03-11T06:28:48.398Z,11.40
2018-03-11T06:31:21.995Z,11.67
2018-03-11T06:33:55.566Z,11.23
2018-03-11T06:36:29.193Z,11.33
2018-03-11T06:39:02.847Z,11.23
2018-03-11T06:41:36.520Z,10.93
2018-03-11T06:44:10.118Z,10.30
2018-03-11T06:46:43.741Z,9.83
2018-03-11T06:49:17.386Z,10.40
2018-03-11T06:51:50.947Z,10.97
2018-03-11T06:54:24.491Z,9.33
2018-03-11T06:56:58.547Z,9.33
2018-03-11T06:59:32.180Z,8.73
2018-03-11T07:02:05.781Z,9.00
2018-03-11T07:04:39.377Z,8.53
2018-03-11T07:07:13.053Z,7.23
2018-03-11T07:09:46.597Z,6.83
2018-03-11T07:12:20.338Z,7.70
2018-03-11T07:14:53.968Z,7.10
2018-03-11T07:17:27.589Z,7.77
2018-03-11T07:20:01.112Z,7.50
2018-03-11T07:22:34.890Z,7.47
2018-03-11T07:25:08.414Z,7.53
2018-03-11T07:27:41.950Z,7.17
2018-03-11T07:30:15.555Z,8.63
2018-03-11T07:32:49.122Z,6.80
2018-03-11T07:35:22.653Z,8.40
2018-03-11T07:37:56.242Z,7.40
2018-03-11T07:40:30.067Z,8.37
2018-03-11T07:43:03.644Z,8.40
2018-03-11T07:45:37.465Z,7.50
2018-03-11T07:48:11.243Z,8.03
2018-03-11T07:50:44.803Z,7.90
2018-03-11T07:53:18.342Z,8.23
2018-03-11T07:55:51.827Z,8.10
2018-03-11T07:58:25.487Z,7.93
2018-03-11T08:00:59.178Z,8.00
2018-03-11T08:03:32.959Z,7.97
2018-03-11T08:06:06.543Z,7.73
2018-03-11T08:08:40.095Z,7.83
2018-03-11T08:11:13.746Z,6.93
2018-03-11T08:13:48.127Z,7.70
2018-03-11T08:16:21.711Z,6.90
2018-03-11T08:18:55.274Z,6.20
2018-03-11T08:21:28.892Z,7.53
2018-03-11T08:24:02.584Z,7.30
2018-03-11T08:26:36.357Z,6.73
2018-03-11T08:29:10.019Z,6.83
2018-03-11T08:31:43.791Z,6.97
2018-03-11T08:34:17.583Z,6.90
2018-03-11T08:36:51.318Z,7.30
2018-03-11T08:39:25.070Z,8.60
2018-03-11T08:41:58.801Z,8.90
2018-03-11T08:44:32.587Z,7.70
2018-03-11T08:47:07.117Z,8.10
2018-03-11T08:49:40.820Z,9.27
2018-03-11T08:52:14.339Z,9.00
2018-03-11T08:54:48.115Z,8.97
2018-03-11T08:57:21.816Z,9.03
2018-03-11T08:59:55.475Z,9.03
2018-03-11T09:02:29.215Z,8.43
2018-03-11T09:05:02.944Z,7.70
2018-03-11T09:07:36.678Z,7.60
2018-03-11T09:10:10.254Z,7.20
2018-03-11T09:12:44.062Z,8.20
2018-03-11T09:15:17.580Z,7.23
2018-03-11T09:17:51.196Z,7.10
2018-03-11T09:20:24.824Z,6.77
2018-03-11T09:22:58.634Z,6.63
2018-03-11T09:25:32.270Z,7.17
2018-03-11T09:28:06.003Z,6.00
2018-03-11T09:30:39.562Z,7.00
2018-03-11T09:33:13.175Z,5.30
2018-03-11T09:35:46.749Z,6.13
2018-03-11T09:38:20.527Z,6.30
2018-03-11T09:40:54.576Z,5.70
2018-03-11T09:43:28.234Z,5.47
2018-03-11T09:46:01.809Z,5.93
2018-03-11T09:48:35.466Z,5.43
2018-03-11T09:51:09.093Z,5.33
2018-03-11T09:53:42.851Z,4.70
2018-03-11T09:56:16.582Z,5.00
2018-03-11T09:58:50.211Z,4.60
2018-03-11T10:01:23.754Z,4.53
2018-03-11T10:03:57.307Z,4.80
2018-03-11T10:06:31.408Z,4.20
2018-03-11T10:09:05.009Z,5.17
2018-03-11T10:11:38.737Z,4.43
2018-03-11T10:14:12.398Z,3.77
2018-03-11T10:17:05.538Z,4.40
2018-03-11T10:19:39.246Z,3.83
2018-03-11T10:22:12.850Z,2.97
2018-03-11T10:24:46.439Z,3.93
2018-03-11T10:27:20.051Z,3.93
2018-03-11T10:29:53.664Z,3.87
2018-03-11T10:32:27.264Z,3.47
2018-03-11T10:35:00.814Z,3.83
2018-03-11T10:37:34.423Z,3.43
2018-03-11T10:40:08.142Z,3.03
2018-03-11T10:42:41.675Z,3.33
2018-03-11T10:45:15.303Z,3.00
2018-03-11T10:47:49.138Z,2.77
2018-03-11T10:50:22.682Z,3.00
2018-03-11T10:52:56.366Z,3.30
2018-03-11T10:55:30.047Z,3.17
2018-03-11T10:58:03.594Z,3.30
2018-03-11T11:00:42.890Z,3.37
2018-03-11T11:03:16.627Z,3.30
2018-03-11T11:05:50.398Z,2.77
2018-03-11T11:08:24.085Z,2.70
2018-03-11T11:10:57.730Z,2.50
2018-03-11T11:13:31.510Z,2.80
2018-03-11T11:16:05.395Z,2.80
2018-03-11T11:18:39.130Z,3.10
2018-03-11T11:21:12.721Z,2.73
2018-03-11T11:23:46.510Z,2.87
2018-03-11T11:26:20.046Z,2.87
2018-03-11T11:28:53.678Z,2.73
2018-03-11T11:31:27.381Z,2.90
2018-03-11T11:34:00.963Z,3.10
2018-03-11T11:36:34.514Z,4.87
2018-03-11T11:39:08.080Z,41.03
2018-03-11T11:41:41.710Z,2.63
2018-03-11T11:44:15.234Z,3.70
2018-03-11T11:46:48.898Z,3.47
2018-03-11T11:49:22.667Z,4.60
2018-03-11T11:51:56.274Z,2.87
2018-03-11T11:54:30.086Z,19.67
2018-03-11T11:57:04.150Z,5.80
2018-03-11T11:59:37.644Z,6.77
2018-03-11T12:02:11.393Z,62.77
2018-03-11T12:04:44.901Z,88.67
2018-03-11T12:07:18.441Z,7.40
2018-03-11T12:09:52.014Z,2.47
2018-03-11T12:12:25.662Z,10.27
2018-03-11T12:14:59.332Z,2.60
2018-03-11T12:17:32.923Z,7.07
2018-03-11T12:20:06.698Z,2.33
2018-03-11T12:22:40.455Z,2.93
2018-03-11T12:25:14.246Z,2.10
2018-03-11T12:27:47.857Z,3.43
2018-03-11T12:30:21.542Z,2.80
2018-03-11T12:32:55.074Z,2.23
2018-03-11T12:35:28.623Z,3.30
2018-03-11T12:38:02.128Z,1.67
2018-03-11T12:40:35.901Z,2.77
2018-03-11T12:43:09.434Z,1.90
2018-03-11T12:45:43.085Z,1.80
2018-03-11T12:48:16.714Z,2.20
2018-03-11T12:50:50.299Z,1.77
2018-03-11T12:53:24.041Z,1.60
2018-03-11T12:55:58.739Z,1.87
2018-03-11T12:58:32.401Z,1.40
2018-03-11T13:01:06.001Z,1.90
2018-03-11T13:03:39.679Z,1.47
2018-03-11T13:06:13.441Z,1.70
2018-03-11T13:08:46.962Z,1.30
2018-03-11T13:11:20.479Z,1.40
2018-03-11T13:13:54.062Z,1.30
2018-03-11T13:16:27.809Z,1.70
2018-03-11T13:19:01.370Z,1.33
2018-03-11T13:21:35.180Z,1.60
2018-03-11T13:24:08.863Z,1.67
2018-03-11T13:26:42.427Z,1.63
2018-03-11T13:29:15.915Z,1.50
2018-03-11T13:31:49.480Z,1.70
2018-03-11T13:34:28.038Z,1.43
2018-03-11T13:37:01.648Z,1.80
2018-03-11T13:39:47.231Z,1.67
2018-03-11T13:42:20.988Z,1.63
2018-03-11T13:45:06.354Z,1.73
2018-03-11T13:47:40.005Z,1.50
2018-03-11T13:50:13.655Z,1.70
2018-03-11T13:52:59.403Z,1.80
2018-03-11T13:55:33.127Z,1.63
2018-03-11T13:58:25.608Z,1.60
2018-03-11T14:00:59.248Z,1.57
2018-03-11T14:03:32.877Z,1.70
2018-03-11T14:06:24.357Z,1.73
2018-03-11T14:08:58.122Z,1.77
2018-03-11T14:11:31.774Z,1.83
2018-03-11T14:14:05.383Z,1.57
2018-03-11T14:16:38.943Z,1.83
2018-03-11T14:19:12.552Z,1.40
2018-03-11T14:21:46.298Z,1.60
2018-03-11T14:24:20.003Z,2.20
2018-03-11T14:26:53.697Z,1.50
2018-03-11T14:29:27.299Z,2.00
2018-03-11T14:32:01.013Z,1.43
2018-03-11T14:34:34.632Z,1.50
2018-03-11T14:37:08.303Z,1.70
2018-03-11T14:39:42.142Z,1.50
2018-03-11T14:42:15.930Z,1.40
2018-03-11T14:44:49.576Z,1.70
2018-03-11T14:47:23.348Z,1.50
2018-03-11T14:49:57.011Z,1.60
2018-03-11T14:52:30.859Z,1.53
2018-03-11T14:55:04.426Z,2.20
2018-03-11T14:57:37.995Z,1.67
2018-03-11T15:00:11.594Z,1.50
2018-03-11T15:02:45.151Z,1.20
2018-03-11T15:05:18.886Z,2.30
2018-03-11T15:07:52.635Z,1.50
2018-03-11T15:10:26.400Z,1.40
2018-03-11T15:13:00.017Z,1.60
2018-03-11T15:15:33.628Z,1.50
2018-03-11T15:18:07.312Z,1.47
2018-03-11T15:20:41.043Z,1.40
2018-03-11T15:23:14.777Z,1.57
2018-03-11T15:25:48.369Z,1.50
2018-03-11T15:28:22.192Z,1.87
2018-03-11T15:30:55.989Z,1.50
2018-03-11T15:33:29.770Z,1.20
2018-03-11T15:36:03.446Z,1.50
2018-03-11T15:38:37.178Z,1.70
2018-03-11T15:41:10.907Z,1.17
2018-03-11T15:43:44.694Z,1.20
2018-03-11T15:49:19.380Z,1.80
2018-03-11T15:51:52.991Z,1.90
2018-03-11T15:54:26.687Z,1.53
2018-03-11T15:57:00.419Z,1.70
2018-03-11T15:59:34.305Z,1.93
2018-03-11T16:02:07.831Z,3.17
2018-03-11T16:04:41.486Z,28.23
2018-03-11T16:07:15.025Z,2.97
2018-03-11T16:09:48.771Z,2.53
2018-03-11T16:12:22.487Z,2.47
2018-03-11T16:14:56.077Z,3.00
2018-03-11T16:17:29.826Z,3.07
2018-03-11T16:20:03.567Z,1.93
2018-03-11T16:22:37.387Z,1.93
2018-03-11T16:25:11.071Z,8.00
2018-03-11T16:27:44.830Z,5.40
2018-03-11T16:30:18.567Z,4.77
2018-03-11T16:32:52.235Z,3.47
2018-03-11T16:35:25.763Z,1.97
2018-03-11T16:37:59.641Z,4.03
2018-03-11T16:40:33.220Z,2.30
2018-03-11T16:43:07.293Z,3.10
2018-03-11T16:45:41.136Z,2.20
2018-03-11T16:48:14.927Z,2.37
2018-03-11T16:50:48.728Z,3.67
2018-03-11T16:53:22.620Z,1.83
2018-03-11T16:55:56.415Z,6.83
2018-03-11T16:58:30.042Z,20.13
2018-03-11T17:01:03.640Z,9.03
2018-03-11T17:03:37.380Z,12.83
2018-03-11T17:06:10.966Z,2.20
2018-03-11T17:08:44.723Z,2.77
2018-03-11T17:11:18.646Z,2.33
2018-03-11T17:13:52.389Z,11.20
2018-03-11T17:16:33.342Z,2.67
2018-03-11T17:19:06.894Z,2.57
2018-03-11T17:21:40.665Z,2.40
2018-03-11T17:24:14.211Z,9.17
2018-03-11T17:26:47.798Z,4.20
2018-03-11T17:29:21.598Z,2.83
2018-03-11T17:31:55.212Z,3.47
2018-03-11T17:34:28.906Z,2.70
2018-03-11T17:37:02.492Z,2.43
2018-03-11T17:39:36.295Z,3.10
2018-03-11T17:42:09.919Z,3.23
2018-03-11T17:44:43.583Z,2.90
2018-03-11T17:47:17.174Z,3.17
2018-03-11T17:49:50.927Z,3.63
2018-03-11T17:52:24.459Z,3.70
2018-03-11T17:54:57.961Z,4.20
2018-03-11T17:57:31.624Z,4.70
2018-03-11T18:00:05.262Z,3.83
2018-03-11T18:02:38.966Z,4.77
2018-03-11T18:05:12.745Z,4.13
2018-03-11T18:07:46.248Z,4.30
2018-03-11T18:10:19.846Z,3.47
2018-03-11T18:12:53.354Z,5.70
2018-03-11T18:15:27.073Z,5.93
2018-03-11T18:18:00.953Z,5.27
2018-03-11T18:20:34.596Z,6.10
2018-03-11T18:23:08.383Z,50.40
2018-03-11T18:25:41.938Z,8.50
2018-03-11T18:28:15.598Z,6.30
2018-03-11T18:30:49.190Z,7.37
2018-03-11T18:33:22.854Z,9.17
2018-03-11T18:35:56.435Z,5.77
2018-03-11T18:38:30.010Z,4.37
2018-03-11T18:41:03.560Z,4.33
2018-03-11T18:43:37.261Z,4.53
2018-03-11T18:46:10.822Z,4.80
2018-03-11T18:48:44.592Z,4.90
2018-03-11T18:51:18.131Z,4.47
2018-03-11T18:53:51.667Z,4.10
2018-03-11T18:56:25.334Z,4.70
2018-03-11T18:58:59.107Z,4.90
2018-03-11T19:01:32.614Z,5.83
2018-03-11T19:04:06.282Z,4.77
2018-03-11T19:06:39.849Z,5.07
2018-03-11T19:09:13.486Z,5.27
2018-03-11T19:11:47.161Z,4.87
2018-03-11T19:14:20.743Z,5.87
2018-03-11T19:16:54.337Z,4.90
2018-03-11T19:19:27.921Z,5.17
2018-03-11T19:22:01.665Z,4.80
2018-03-11T19:24:35.330Z,4.57
2018-03-11T19:27:25.302Z,4.63
2018-03-11T19:29:59.111Z,4.77
2018-03-11T19:32:32.844Z,4.60
2018-03-11T19:35:06.582Z,4.83
2018-03-11T19:37:40.278Z,4.43
2018-03-11T19:40:14.018Z,4.93
2018-03-11T19:42:47.658Z,5.67
2018-03-11T19:45:21.266Z,4.50
2018-03-11T19:47:55.018Z,4.53
2018-03-11T19:50:28.592Z,4.40
2018-03-11T19:53:02.155Z,4.50
2018-03-11T19:55:35.710Z,4.07
2018-03-11T19:58:09.412Z,4.40
2018-03-11T20:00:43.157Z,4.60
2018-03-11T20:03:16.873Z,4.47
2018-03-11T20:05:50.665Z,4.27
2018-03-11T20:08:24.434Z,4.50
2018-03-11T20:10:58.266Z,5.17
2018-03-11T20:13:31.910Z,4.27
2018-03-11T20:16:05.606Z,4.50
2018-03-11T20:18:39.206Z,4.23
2018-03-11T20:21:12.738Z,4.10
2018-03-11T20:23:46.262Z,4.33
2018-03-11T20:26:20.065Z,3.87
2018-03-11T20:28:53.775Z,4.30
2018-03-11T20:31:27.527Z,4.20
2018-03-11T20:34:01.046Z,3.77
2018-03-11T20:36:34.640Z,4.90
2018-03-11T20:39:08.184Z,4.77
2018-03-11T20:41:41.779Z,4.37
2018-03-11T20:44:15.715Z,4.60
2018-03-11T20:46:49.438Z,4.50
2018-03-11T20:49:23.315Z,5.20
2018-03-11T20:51:56.954Z,4.87
2018-03-11T20:54:30.801Z,4.47
2018-03-11T20:57:04.405Z,4.67
2018-03-11T20:59:37.987Z,5.13
2018-03-11T21:02:11.607Z,4.90
2018-03-11T21:04:45.368Z,4.67
2018-03-11T21:07:19.074Z,4.60
2018-03-11T21:09:52.855Z,4.73
2018-03-11T21:12:26.586Z,4.63
2018-03-11T21:15:00.274Z,4.40
2018-03-11T21:17:33.888Z,4.63
2018-03-11T21:20:07.554Z,4.53
2018-03-11T21:22:41.394Z,4.83
2018-03-11T21:25:15.059Z,4.57
2018-03-11T21:27:48.781Z,4.90
2018-03-11T21:30:30.614Z,5.30
2018-03-11T21:33:04.326Z,4.83
2018-03-11T21:35:38.082Z,4.63
2018-03-11T21:38:11.631Z,4.80
2018-03-11T21:40:45.180Z,4.83
2018-03-11T21:43:18.792Z,4.73
2018-03-11T21:45:52.531Z,4.70
2018-03-11T21:48:26.247Z,4.77
2018-03-11T21:50:59.811Z,4.53
2018-03-11T21:53:33.540Z,4.67
2018-03-11T21:56:07.143Z,4.33
2018-03-11T21:58:40.878Z,4.33
2018-03-11T22:01:14.680Z,4.43
2018-03-11T22:03:48.374Z,4.50
2018-03-11T22:06:22.083Z,4.20
2018-03-11T22:08:55.690Z,4.53
2018-03-11T22:11:29.297Z,4.10
2018-03-11T22:14:03.080Z,5.67
2018-03-11T22:16:36.750Z,3.97
2018-03-11T22:19:10.388Z,4.67
2018-03-11T22:21:44.030Z,4.07
2018-03-11T22:24:17.753Z,4.20
2018-03-11T22:26:51.439Z,4.83
2018-03-11T22:29:25.071Z,5.00
2018-03-11T22:31:58.827Z,4.80
2018-03-11T22:34:32.400Z,4.60
2018-03-11T22:37:06.137Z,4.80
2018-03-11T22:39:39.705Z,4.83
2018-03-11T22:42:13.327Z,4.77
2018-03-11T22:44:46.996Z,5.30
2018-03-11T22:47:20.619Z,4.40
2018-03-11T22:49:54.370Z,4.40
2018-03-11T22:52:27.951Z,4.37
2018-03-11T22:55:01.582Z,4.20
2018-03-11T22:57:35.255Z,4.27
2018-03-11T23:00:08.849Z,4.30
2018-03-11T23:02:42.503Z,4.57
2018-03-11T23:05:16.219Z,4.57
2018-03-11T23:07:49.888Z,4.53
2018-03-11T23:10:23.587Z,4.10
2018-03-11T23:12:57.418Z,4.50
2018-03-11T23:15:31.068Z,4.20
2018-03-11T23:18:04.622Z,5.03
2018-03-11T23:20:38.285Z,4.53
2018-03-11T23:23:11.878Z,4.50
2018-03-11T23:25:45.691Z,4.47
2018-03-11T23:28:19.411Z,4.50
2018-03-11T23:30:53.047Z,4.23
2018-03-11T23:33:26.741Z,4.17
2018-03-11T23:36:00.409Z,4.47
2018-03-11T23:38:34.044Z,4.63
2018-03-11T23:41:07.622Z,3.97
2018-03-11T23:43:41.231Z,4.57
2018-03-11T23:46:14.891Z,4.97
2018-03-11T23:48:48.549Z,4.13
2018-03-11T23:51:22.148Z,4.70
2018-03-11T23:53:55.861Z,4.43
2018-03-11T23:56:29.507Z,4.60
2018-03-11T23:59:03.192Z,4.60
